Time;durP1;ratioP1;P1;durP2;ratioP2;P2;SDS_P1;SDS_P2;PMS_P1;PMS_P2;Temp;Humidity;BMP_temperature;BMP_pressure;BME280_temperature;BME280_humidity;BME280_pressure;Samples;Min_cycle;Max_cycle;Signal;HPM_P1;HPM_P2
2022/01/17 00:00:05;;;;;;;;;;;;;;;18.58;43.43;101457.38;2081082;28;20220;-38
2022/01/17 00:01:07;;;;;;;;;;;;;;;18.58;43.29;101460.97;2079213;28;19917;-38
2022/01/17 00:02:07;;;;;;;;;;;;;;;18.60;43.14;101450.81;2084305;28;20021;-38
2022/01/17 00:03:08;;;;;;;;;;;;;;;18.61;43.31;101457.16;2083929;28;19969;-38
2022/01/17 00:04:10;;;;;;;;;;;;;;;18.62;43.28;101459.78;2084254;28;19947;-38
2022/01/17 00:05:11;;;;;;;;;;;;;;;18.61;43.09;101455.28;2082499;28;19928;-38
2022/01/17 00:06:11;;;;;;;;;;;;;;;18.64;43.11;101454.19;2083840;28;20395;-39
2022/01/17 00:07:11;;;;;;;;;;;;;;;18.65;43.20;101455.94;2083729;28;19931;-38
2022/01/17 00:08:12;;;;;;;;;;;;;;;18.67;43.17;101462.16;2080965;28;19921;-38
2022/01/17 00:09:13;;;;;;;;;;;;;;;18.69;43.01;101459.31;2086326;28;20035;-39
2022/01/17 00:10:13;;;;;;;;;;;;;;;18.70;42.99;101466.53;2082686;28;20146;-39
2022/01/17 00:11:14;;;;;;;;;;;;;;;18.70;43.14;101455.59;2077995;28;19990;-38
2022/01/17 00:12:15;;;;;;;;;;;;;;;18.71;43.00;101460.94;2082149;28;19924;-38
2022/01/17 00:13:26;;;;;;;;;;;;;;;18.72;43.15;101459.09;2081170;28;19967;-38
2022/01/17 00:14:33;;;;;;;;;;;;;;;18.73;42.97;101466.28;2082021;28;19924;-38
2022/01/17 00:15:46;;;;;;;;;;;;;;;18.74;43.19;101463.47;2082822;28;19921;-38
2022/01/17 00:17:04;;;;;;;;;;;;;;;18.74;43.15;101468.91;2083759;28;20601;-38
2022/01/17 00:20:26;;;;;;;;;;;;;;;18.77;43.06;101467.84;2080541;28;20263;-38
2022/01/17 00:21:27;;;;;;;;;;;;;;;18.77;42.90;101468.72;2081360;28;19912;-38
2022/01/17 00:22:27;;;;;;;;;;;;;;;18.77;42.99;101479.63;2082039;28;20258;-38
2022/01/17 00:23:27;;;;;;;;;;;;;;;18.78;43.03;101470.44;2083686;28;19915;-38
2022/01/17 00:24:28;;;;;;;;;;;;;;;18.79;43.01;101477.66;2079973;28;20154;-38
2022/01/17 00:25:28;;;;;;;;;;;;;;;18.80;42.88;101473.94;2084017;28;20229;-38
2022/01/17 00:26:28;;;;;;;;;;;;;;;18.80;42.88;101468.47;2083982;28;19920;-38
2022/01/17 00:27:31;;;;;;;;;;;;;;;18.82;42.90;101477.44;2083609;28;19944;-38
2022/01/17 00:28:31;;;;;;;;;;;;;;;18.82;42.85;101474.69;2082589;28;20027;-39
2022/01/17 00:29:32;;;;;;;;;;;;;;;18.84;42.80;101475.47;2083368;28;19920;-39
2022/01/17 00:30:32;;;;;;;;;;;;;;;18.83;42.68;101479.16;2084114;28;20252;-39
2022/01/17 00:31:32;;;;;;;;;;;;;;;18.85;42.91;101471.72;2083338;28;20327;-38
2022/01/17 00:32:33;;;;;;;;;;;;;;;18.87;42.80;101479.81;2083257;28;20693;-38
2022/01/17 00:33:34;;;;;;;;;;;;;;;18.89;42.79;101482.41;2082982;28;19920;-38
2022/01/17 00:34:34;;;;;;;;;;;;;;;18.88;42.74;101480.69;2085046;28;20044;-36
2022/01/17 00:35:35;;;;;;;;;;;;;;;18.88;42.63;101476.09;2081874;28;19920;-36
2022/01/17 00:36:35;;;;;;;;;;;;;;;18.89;42.58;101476.97;2083915;28;20460;-36
2022/01/17 00:37:36;;;;;;;;;;;;;;;18.90;42.70;101476.00;2084834;28;19928;-36
2022/01/17 00:38:36;;;;;;;;;;;;;;;18.91;42.71;101478.59;2083038;28;20267;-36
2022/01/17 00:39:37;;;;;;;;;;;;;;;18.91;42.63;101478.59;2085370;28;20218;-37
2022/01/17 00:40:37;;;;;;;;;;;;;;;18.93;42.58;101483.94;2082349;28;20279;-36
2022/01/17 00:41:38;;;;;;;;;;;;;;;18.94;42.74;101481.09;2085006;28;19965;-36
2022/01/17 00:42:40;;;;;;;;;;;;;;;18.92;42.66;101476.75;2078732;28;20356;-37
2022/01/17 00:43:41;;;;;;;;;;;;;;;18.94;42.70;101482.97;2077498;28;19917;-38
2022/01/17 00:44:41;;;;;;;;;;;;;;;18.96;42.56;101478.25;2082557;28;20334;-38
2022/01/17 00:45:43;;;;;;;;;;;;;;;18.94;42.65;101470.19;2082425;28;19928;-38
2022/01/17 00:46:44;;;;;;;;;;;;;;;18.96;42.58;101478.25;2084851;28;19920;-38
2022/01/17 00:47:45;;;;;;;;;;;;;;;18.97;42.53;101477.28;2079182;28;19991;-38
2022/01/17 00:48:46;;;;;;;;;;;;;;;18.98;42.49;101481.75;2081078;28;19920;-38
2022/01/17 00:49:46;;;;;;;;;;;;;;;18.98;42.47;101484.47;2083919;28;19917;-38
2022/01/17 00:50:47;;;;;;;;;;;;;;;18.99;42.56;101483.50;2081680;28;19921;-38
2022/01/17 00:51:48;;;;;;;;;;;;;;;18.99;42.59;101478.03;2082536;28;19916;-38
2022/01/17 00:52:48;;;;;;;;;;;;;;;19.00;42.47;101474.31;2081223;28;19913;-38
2022/01/17 00:53:48;;;;;;;;;;;;;;;19.00;42.55;101477.91;2082070;28;19931;-38
2022/01/17 00:54:49;;;;;;;;;;;;;;;19.01;42.56;101478.75;2080080;28;20605;-38
2022/01/17 00:55:49;;;;;;;;;;;;;;;19.01;42.52;101478.75;2077967;28;20040;-38
2022/01/17 00:56:49;;;;;;;;;;;;;;;19.02;42.40;101481.41;2078838;28;19920;-38
2022/01/17 00:57:50;;;;;;;;;;;;;;;19.02;42.46;101477.78;2084150;28;19916;-38
2022/01/17 00:58:50;;;;;;;;;;;;;;;19.04;42.43;101478.56;2076837;28;20388;-38
2022/01/17 00:59:50;;;;;;;;;;;;;;;19.04;42.48;101473.09;2077532;28;19943;-38
2022/01/17 01:00:51;;;;;;;;;;;;;;;19.03;42.45;101474.97;2079402;28;19935;-38
2022/01/17 01:01:51;;;;;;;;;;;;;;;19.02;42.44;101475.94;2079915;28;19980;-39
2022/01/17 01:02:52;;;;;;;;;;;;;;;19.04;42.52;101475.81;2085394;28;19927;-38
2022/01/17 01:03:53;;;;;;;;;;;;;;;19.05;42.55;101474.81;2080173;28;19939;-38
2022/01/17 01:04:53;;;;;;;;;;;;;;;19.05;42.31;101477.56;2080530;28;19928;-38
2022/01/17 01:05:53;;;;;;;;;;;;;;;19.05;42.53;101483.88;2082246;28;20306;-38
2022/01/17 01:06:54;;;;;;;;;;;;;;;19.05;42.55;101483.03;2077755;28;19912;-38
2022/01/17 01:07:54;;;;;;;;;;;;;;;19.05;42.53;101485.75;2080058;28;20207;-38
2022/01/17 01:08:54;;;;;;;;;;;;;;;19.06;42.47;101479.31;2084732;28;19920;-38
2022/01/17 01:10:10;;;;;;;;;;;;;;;19.05;42.47;101486.63;2085313;28;20218;-38
2022/01/17 01:11:10;;;;;;;;;;;;;;;19.07;42.48;101491.97;2081754;28;19998;-38
2022/01/17 01:12:11;;;;;;;;;;;;;;;19.07;42.53;101497.44;2083777;28;19920;-38
2022/01/17 01:13:11;;;;;;;;;;;;;;;19.07;42.56;101491.97;2082350;28;19920;-38
2022/01/17 01:14:12;;;;;;;;;;;;;;;19.06;42.47;101491.13;2079473;28;20245;-38
2022/01/17 01:15:18;;;;;;;;;;;;;;;19.07;42.50;101494.72;2082261;28;19924;-39
2022/01/17 01:17:32;;;;;;;;;;;;;;;19.09;42.50;101495.47;2080167;28;19936;-38
2022/01/17 01:19:41;;;;;;;;;;;;;;;19.09;42.61;101494.63;2084498;28;19962;-38
2022/01/17 01:21:47;;;;;;;;;;;;;;;19.09;42.56;101490.00;2082983;28;20216;-38
2022/01/17 01:28:05;;;;;;;;;;;;;;;19.10;42.56;101496.34;2084287;28;19924;-38
2022/01/17 01:29:05;;;;;;;;;;;;;;;19.10;42.57;101497.22;2084059;28;20217;-38
2022/01/17 01:30:09;;;;;;;;;;;;;;;19.10;42.59;101496.34;2084844;28;20236;-38
2022/01/17 01:31:15;;;;;;;;;;;;;;;19.11;42.57;101501.69;2085819;28;19920;-38
2022/01/17 01:32:20;;;;;;;;;;;;;;;19.12;42.46;101497.09;2081296;28;20015;-38
2022/01/17 01:33:31;;;;;;;;;;;;;;;19.11;42.57;101496.25;2081894;28;19920;-38
2022/01/17 01:34:36;;;;;;;;;;;;;;;19.11;42.50;101496.25;2085603;28;20343;-38
2022/01/17 01:35:44;;;;;;;;;;;;;;;19.12;42.37;101499.84;2082192;28;19950;-38
2022/01/17 01:36:48;;;;;;;;;;;;;;;19.12;42.56;101497.09;2081604;28;20016;-38
2022/01/17 01:37:49;;;;;;;;;;;;;;;19.12;42.50;101499.84;2081494;28;19955;-38
2022/01/17 01:38:49;;;;;;;;;;;;;;;19.12;42.48;101497.97;2083284;28;19963;-38
2022/01/17 01:39:51;;;;;;;;;;;;;;;19.11;42.39;101498.97;2081218;28;20535;-38
2022/01/17 01:40:51;;;;;;;;;;;;;;;19.11;42.57;101498.97;2084421;28;19935;-38
2022/01/17 01:41:52;;;;;;;;;;;;;;;19.11;42.48;101498.97;2081246;28;19940;-38
2022/01/17 01:42:53;;;;;;;;;;;;;;;19.12;42.55;101500.69;2077691;28;19963;-38
2022/01/17 01:43:53;;;;;;;;;;;;;;;19.11;42.50;101492.59;2083128;28;19916;-38
2022/01/17 01:44:53;;;;;;;;;;;;;;;19.12;42.53;101491.63;2081881;28;19993;-38
2022/01/17 01:46:00;;;;;;;;;;;;;;;19.11;42.47;101493.50;2085744;28;20266;-38
2022/01/17 01:47:00;;;;;;;;;;;;;;;19.12;42.59;101489.78;2081139;28;20363;-38
2022/01/17 01:48:01;;;;;;;;;;;;;;;19.11;42.51;101488.03;2082267;28;19921;-38
2022/01/17 01:49:01;;;;;;;;;;;;;;;19.12;42.53;101483.44;2082419;28;19921;-38
2022/01/17 01:50:02;;;;;;;;;;;;;;;19.12;42.65;101483.44;2083350;28;20373;-38
2022/01/17 01:51:03;;;;;;;;;;;;;;;19.11;42.55;101488.03;2083827;28;20210;-38
2022/01/17 01:52:03;;;;;;;;;;;;;;;19.11;42.62;101488.03;2081533;28;20271;-38
2022/01/17 01:53:04;;;;;;;;;;;;;;;19.12;42.61;101491.63;2085479;28;20234;-38
2022/01/17 01:54:07;;;;;;;;;;;;;;;19.11;42.65;101488.03;2079267;28;20016;-38
2022/01/17 01:55:09;;;;;;;;;;;;;;;19.10;42.65;101491.75;2077879;28;19920;-38
2022/01/17 01:56:09;;;;;;;;;;;;;;;19.11;42.58;101496.25;2084150;28;20307;-38
2022/01/17 01:57:10;;;;;;;;;;;;;;;19.11;42.76;101493.50;2084115;28;19920;-38
2022/01/17 01:58:11;;;;;;;;;;;;;;;19.12;42.72;101495.25;2083271;28;19990;-38
2022/01/17 01:59:12;;;;;;;;;;;;;;;19.12;42.71;101488.91;2084067;28;19984;-38
2022/01/17 02:00:14;;;;;;;;;;;;;;;19.11;42.72;101493.50;2085379;28;19920;-38
2022/01/17 02:01:15;;;;;;;;;;;;;;;19.10;42.59;101490.88;2080458;28;20086;-38
2022/01/17 02:02:15;;;;;;;;;;;;;;;19.11;42.52;101490.78;2083393;28;20400;-38
2022/01/17 02:03:15;;;;;;;;;;;;;;;19.10;42.65;101491.75;2081359;28;20379;-38
2022/01/17 02:04:15;;;;;;;;;;;;;;;19.10;42.70;101491.75;2080309;28;20361;-38
2022/01/17 02:05:16;;;;;;;;;;;;;;;19.11;42.63;101498.97;2084298;28;19920;-38
2022/01/17 02:06:16;;;;;;;;;;;;;;;19.11;42.49;101485.31;2085195;28;20011;-38
2022/01/17 02:07:16;;;;;;;;;;;;;;;19.12;42.70;101495.25;2083958;28;19912;-38
2022/01/17 02:08:17;;;;;;;;;;;;;;;19.12;42.49;101489.78;2082898;28;19917;-38
2022/01/17 02:09:17;;;;;;;;;;;;;;;19.12;42.57;101494.38;2082574;28;20348;-38
2022/01/17 02:10:18;;;;;;;;;;;;;;;19.12;42.62;101487.03;2083766;28;20350;-38
2022/01/17 02:11:18;;;;;;;;;;;;;;;19.12;42.55;101488.91;2079767;28;20067;-38
2022/01/17 02:12:21;;;;;;;;;;;;;;;19.12;42.63;101483.44;2084397;28;19982;-38
2022/01/17 02:13:21;;;;;;;;;;;;;;;19.11;42.70;101488.03;2083581;28;19973;-38
2022/01/17 02:14:22;;;;;;;;;;;;;;;19.11;42.59;101490.78;2081554;28;19974;-38
2022/01/17 02:15:22;;;;;;;;;;;;;;;19.10;42.54;101486.28;2081620;28;19935;-38
2022/01/17 02:16:23;;;;;;;;;;;;;;;19.10;42.54;101491.75;2081178;28;19966;-38
2022/01/17 02:17:24;;;;;;;;;;;;;;;19.12;42.53;101502.56;2083483;28;19912;-38
2022/01/17 02:18:30;;;;;;;;;;;;;;;19.11;42.66;101493.50;2083377;28;19920;-38
2022/01/17 02:19:31;;;;;;;;;;;;;;;19.11;42.55;101498.97;2083119;28;19912;-38
2022/01/17 02:20:58;;;;;;;;;;;;;;;19.11;42.64;101503.53;2083229;28;19951;-38
2022/01/17 02:21:58;;;;;;;;;;;;;;;19.10;42.68;101497.22;2085460;28;20388;-38
2022/01/17 02:23:01;;;;;;;;;;;;;;;19.10;42.59;101497.22;2081827;28;20045;-38
2022/01/17 02:24:01;;;;;;;;;;;;;;;19.10;42.70;101493.59;2085457;28;20004;-38
2022/01/17 02:25:02;;;;;;;;;;;;;;;19.09;42.61;101495.47;2085979;28;19938;-38
2022/01/17 02:26:02;;;;;;;;;;;;;;;19.11;42.57;101496.25;2080534;28;19917;-38
2022/01/17 02:27:03;;;;;;;;;;;;;;;19.10;42.63;101488.13;2085947;28;20191;-38
2022/01/17 02:28:03;;;;;;;;;;;;;;;19.09;42.60;101495.47;2083994;28;19913;-38
2022/01/17 02:29:04;;;;;;;;;;;;;;;19.09;42.75;101495.47;2082129;28;19924;-38
2022/01/17 02:30:05;;;;;;;;;;;;;;;19.10;42.71;101497.22;2084829;28;19994;-38
2022/01/17 02:31:06;;;;;;;;;;;;;;;19.09;42.64;101495.47;2083020;28;20235;-38
2022/01/17 02:32:06;;;;;;;;;;;;;;;19.09;42.75;101498.22;2082138;28;19925;-38
2022/01/17 02:33:06;;;;;;;;;;;;;;;19.09;42.73;101498.22;2083684;28;19920;-38
2022/01/17 02:34:07;;;;;;;;;;;;;;;19.09;42.73;101494.63;2078861;28;19972;-38
2022/01/17 02:35:17;;;;;;;;;;;;;;;19.08;42.71;101498.31;2078606;28;19931;-38
2022/01/17 02:36:18;;;;;;;;;;;;;;;19.07;42.78;101497.44;2080881;28;19923;-38
2022/01/17 02:37:18;;;;;;;;;;;;;;;19.07;42.62;101500.19;2084325;28;19927;-38
2022/01/17 02:38:19;;;;;;;;;;;;;;;19.07;42.75;101497.44;2081164;28;20305;-38
2022/01/17 02:39:20;;;;;;;;;;;;;;;19.06;42.69;101495.72;2080093;28;19966;-38
2022/01/17 02:40:20;;;;;;;;;;;;;;;19.06;42.70;101495.72;2084532;28;19951;-38
2022/01/17 02:41:21;;;;;;;;;;;;;;;19.06;42.78;101495.72;2085228;28;19952;-38
2022/01/17 02:42:22;;;;;;;;;;;;;;;19.07;42.79;101502.91;2080112;28;20017;-38
2022/01/17 02:43:25;;;;;;;;;;;;;;;19.06;42.71;101501.19;2082553;28;20050;-38
2022/01/17 02:44:26;;;;;;;;;;;;;;;19.05;42.84;101508.47;2082796;28;19969;-38
2022/01/17 02:45:35;;;;;;;;;;;;;;;19.04;42.72;101500.41;2080305;28;19912;-38
2022/01/17 02:46:36;;;;;;;;;;;;;;;19.04;42.76;101501.28;2079869;28;19924;-38
2022/01/17 02:47:36;;;;;;;;;;;;;;;19.04;42.72;101497.69;2084055;28;20240;-38
2022/01/17 02:48:38;;;;;;;;;;;;;;;19.04;42.88;101497.69;2085473;28;20315;-38
2022/01/17 02:49:39;;;;;;;;;;;;;;;19.04;42.77;101497.69;2084560;28;20302;-38
2022/01/17 02:50:41;;;;;;;;;;;;;;;19.03;42.79;101496.81;2083848;28;20004;-38
2022/01/17 02:51:43;;;;;;;;;;;;;;;19.03;42.83;101490.47;2083135;28;19917;-38
2022/01/17 02:52:44;;;;;;;;;;;;;;;19.02;42.78;101494.19;2084027;28;19920;-38
2022/01/17 02:53:44;;;;;;;;;;;;;;;19.01;42.87;101497.91;2084439;28;19917;-38
2022/01/17 02:54:45;;;;;;;;;;;;;;;19.01;42.80;101497.91;2083091;28;19913;-38
2022/01/17 02:55:48;;;;;;;;;;;;;;;19.00;42.90;101494.28;2082550;28;19916;-39
2022/01/17 02:56:48;;;;;;;;;;;;;;;19.00;42.97;101501.63;2084183;28;19939;-38
2022/01/17 02:57:49;;;;;;;;;;;;;;;18.99;42.95;101495.28;2082266;28;20295;-38
2022/01/17 02:58:49;;;;;;;;;;;;;;;19.00;42.92;101498.91;2084665;28;20007;-38
2022/01/17 02:59:50;;;;;;;;;;;;;;;19.00;42.96;101493.44;2083095;28;19913;-38
2022/01/17 03:00:52;;;;;;;;;;;;;;;18.99;42.95;101499.91;2082362;28;20496;-38
2022/01/17 03:01:52;;;;;;;;;;;;;;;18.98;42.87;101493.53;2083690;28;20015;-38
2022/01/17 03:02:53;;;;;;;;;;;;;;;18.99;42.89;101497.16;2082691;28;20501;-38
2022/01/17 03:03:53;;;;;;;;;;;;;;;18.98;42.90;101492.66;2080887;28;19943;-38
2022/01/17 03:04:54;;;;;;;;;;;;;;;18.98;42.96;101499.00;2084542;28;20217;-38
2022/01/17 03:05:55;;;;;;;;;;;;;;;18.98;42.92;101493.53;2081890;28;19920;-38
2022/01/17 03:06:56;;;;;;;;;;;;;;;18.98;42.93;101503.59;2080698;28;19917;-38
2022/01/17 03:07:56;;;;;;;;;;;;;;;18.97;43.03;101496.41;2083342;28;19920;-38
2022/01/17 03:08:56;;;;;;;;;;;;;;;18.98;42.95;101498.13;2084211;28;20350;-38
2022/01/17 03:10:05;;;;;;;;;;;;;;;18.98;42.99;101503.59;2082593;28;19928;-38
2022/01/17 03:11:06;;;;;;;;;;;;;;;18.98;43.00;101503.59;2082899;28;19924;-38
2022/01/17 03:12:06;;;;;;;;;;;;;;;18.97;43.05;101501.88;2080495;28;19909;-38
2022/01/17 03:13:09;;;;;;;;;;;;;;;18.96;43.09;101505.56;2085851;28;20337;-38
2022/01/17 03:14:09;;;;;;;;;;;;;;;18.95;43.10;101503.84;2081003;28;20006;-38
2022/01/17 03:15:10;;;;;;;;;;;;;;;18.95;43.25;101501.09;2076664;28;19939;-38
2022/01/17 03:16:13;;;;;;;;;;;;;;;18.95;43.08;101503.84;2081990;28;19920;-38
2022/01/17 03:17:13;;;;;;;;;;;;;;;18.95;43.05;101506.56;2078502;28;19920;-38
2022/01/17 03:18:14;;;;;;;;;;;;;;;18.94;43.17;101507.56;2082739;28;19986;-38
2022/01/17 03:19:14;;;;;;;;;;;;;;;18.94;43.09;101513.03;2081404;28;19939;-38
2022/01/17 03:20:14;;;;;;;;;;;;;;;18.92;43.19;101510.41;2083816;28;19962;-38
2022/01/17 03:21:16;;;;;;;;;;;;;;;18.92;43.11;101520.47;2084969;28;19909;-38
2022/01/17 03:22:16;;;;;;;;;;;;;;;18.93;43.26;101505.81;2083110;28;19924;-38
2022/01/17 03:23:17;;;;;;;;;;;;;;;18.92;42.94;101510.41;2083899;28;20296;-38
2022/01/17 03:24:17;;;;;;;;;;;;;;;18.91;43.16;101513.25;2080129;28;19940;-38
2022/01/17 03:25:17;;;;;;;;;;;;;;;18.90;43.17;101506.03;2084097;28;19915;-38
2022/01/17 03:26:18;;;;;;;;;;;;;;;18.90;43.14;101511.50;2084916;28;20303;-38
2022/01/17 03:27:18;;;;;;;;;;;;;;;18.90;43.28;101504.19;2082879;28;19916;-38
2022/01/17 03:28:19;;;;;;;;;;;;;;;18.91;43.18;101510.50;2078099;28;20208;-38
2022/01/17 03:29:19;;;;;;;;;;;;;;;18.90;43.16;101503.31;2085146;28;19908;-38
2022/01/17 03:30:19;;;;;;;;;;;;;;;18.90;43.10;101506.03;2082710;28;19962;-38
2022/01/17 03:31:20;;;;;;;;;;;;;;;18.89;43.21;101499.72;2084536;28;19904;-38
2022/01/17 03:32:20;;;;;;;;;;;;;;;18.89;43.19;101518.84;2079747;28;20437;-38
2022/01/17 03:33:21;;;;;;;;;;;;;;;18.88;43.12;101503.41;2082463;28;19920;-38
2022/01/17 03:34:21;;;;;;;;;;;;;;;18.89;43.12;101504.28;2078990;28;20420;-38
2022/01/17 03:35:22;;;;;;;;;;;;;;;18.88;43.15;101510.75;2081416;28;20266;-38
2022/01/17 03:36:22;;;;;;;;;;;;;;;18.87;43.30;101512.63;2084893;28;20196;-38
2022/01/17 03:37:23;;;;;;;;;;;;;;;18.87;43.15;101509.00;2083340;28;19986;-38
2022/01/17 03:38:25;;;;;;;;;;;;;;;18.87;43.30;101511.75;2082926;28;20216;-37
2022/01/17 03:39:25;;;;;;;;;;;;;;;18.87;43.30;101506.28;2084143;28;20353;-38
2022/01/17 03:40:26;;;;;;;;;;;;;;;18.87;43.13;101511.75;2083457;28;20019;-38
2022/01/17 03:41:26;;;;;;;;;;;;;;;18.85;43.18;101509.97;2081079;28;19920;-38
2022/01/17 03:42:26;;;;;;;;;;;;;;;18.86;43.22;101499.91;2083069;28;20326;-38
2022/01/17 03:43:27;;;;;;;;;;;;;;;18.84;43.20;101505.50;2079764;28;19999;-38
2022/01/17 03:44:27;;;;;;;;;;;;;;;18.84;43.18;101508.25;2084890;28;19912;-38
2022/01/17 03:45:27;;;;;;;;;;;;;;;18.83;43.22;101506.47;2080792;28;20360;-38
2022/01/17 03:46:28;;;;;;;;;;;;;;;18.83;43.31;101506.47;2084576;28;19975;-38
2022/01/17 03:47:28;;;;;;;;;;;;;;;18.83;43.38;101511.09;2082578;28;20009;-38
2022/01/17 03:48:29;;;;;;;;;;;;;;;18.83;43.25;101506.47;2077215;28;19921;-38
2022/01/17 03:49:29;;;;;;;;;;;;;;;18.82;43.22;101510.22;2081724;28;20382;-38
2022/01/17 03:50:30;;;;;;;;;;;;;;;18.83;43.27;101501.03;2083252;28;19971;-38
2022/01/17 03:51:30;;;;;;;;;;;;;;;18.82;43.18;101506.63;2080752;28;19921;-38
2022/01/17 03:52:31;;;;;;;;;;;;;;;18.82;43.39;101507.47;2083338;28;19920;-38
2022/01/17 03:53:32;;;;;;;;;;;;;;;18.82;43.22;101510.22;2079788;28;19924;-38
2022/01/17 03:54:32;;;;;;;;;;;;;;;18.80;43.41;101506.72;2078543;28;19925;-38
2022/01/17 03:55:34;;;;;;;;;;;;;;;18.80;43.32;101506.72;2078184;28;20113;-38
2022/01/17 03:56:34;;;;;;;;;;;;;;;18.81;43.38;101513.94;2080111;28;19921;-38
2022/01/17 03:57:35;;;;;;;;;;;;;;;18.80;43.27;101509.44;2084254;28;19916;-38
2022/01/17 03:58:35;;;;;;;;;;;;;;;18.80;43.42;101509.44;2082728;28;20029;-38
2022/01/17 03:59:35;;;;;;;;;;;;;;;18.79;43.48;101505.00;2083732;28;19923;-38
2022/01/17 04:00:40;;;;;;;;;;;;;;;18.79;43.38;101507.72;2083345;28;20341;-38
2022/01/17 04:01:40;;;;;;;;;;;;;;;18.78;43.45;101503.22;2081516;28;20064;-38
2022/01/17 04:02:40;;;;;;;;;;;;;;;18.78;43.38;101503.22;2081812;28;19916;-38
2022/01/17 04:03:41;;;;;;;;;;;;;;;18.78;43.38;101503.22;2078821;28;19927;-38
2022/01/17 04:04:41;;;;;;;;;;;;;;;18.77;43.38;101504.22;2082506;28;19986;-38
2022/01/17 04:05:42;;;;;;;;;;;;;;;18.77;43.45;101500.63;2084051;28;19999;-38
2022/01/17 04:06:42;;;;;;;;;;;;;;;18.77;43.30;101501.50;2078920;28;20339;-38
2022/01/17 04:07:42;;;;;;;;;;;;;;;18.77;43.31;101500.63;2081681;28;20126;-38
2022/01/17 04:08:43;;;;;;;;;;;;;;;18.75;43.35;101500.69;2077063;28;20171;-38
2022/01/17 04:09:43;;;;;;;;;;;;;;;18.76;43.39;101502.47;2083822;28;20266;-38
2022/01/17 04:10:43;;;;;;;;;;;;;;;18.75;43.48;101497.97;2081350;28;20739;-39
2022/01/17 04:11:44;;;;;;;;;;;;;;;18.75;43.38;101500.69;2079936;28;20424;-38
2022/01/17 04:12:45;;;;;;;;;;;;;;;18.75;43.30;101497.09;2082295;28;21132;-38
2022/01/17 04:13:46;;;;;;;;;;;;;;;18.74;43.39;101501.69;2083955;28;20446;-38
2022/01/17 04:14:46;;;;;;;;;;;;;;;18.75;43.38;101508.03;2079586;28;19975;-38
2022/01/17 04:15:47;;;;;;;;;;;;;;;18.74;43.50;101509.88;2080453;28;19916;-38
2022/01/17 04:16:47;;;;;;;;;;;;;;;18.74;43.45;101504.44;2081684;28;19952;-38
2022/01/17 04:17:47;;;;;;;;;;;;;;;18.73;43.39;101502.66;2083875;28;19926;-38
2022/01/17 04:18:48;;;;;;;;;;;;;;;18.73;43.40;101499.06;2083374;28;20031;-38
2022/01/17 04:19:52;;;;;;;;;;;;;;;18.72;43.49;101498.19;2082488;28;20164;-38
2022/01/17 04:20:53;;;;;;;;;;;;;;;18.72;43.42;101490.00;2080443;28;19963;-38
2022/01/17 04:21:53;;;;;;;;;;;;;;;18.71;43.42;101490.97;2081688;28;20250;-38
2022/01/17 04:23:02;;;;;;;;;;;;;;;18.71;43.47;101496.44;2079976;28;19995;-38
2022/01/17 04:24:02;;;;;;;;;;;;;;;18.70;43.53;101494.69;2091058;28;19924;-38
2022/01/17 04:25:03;;;;;;;;;;;;;;;18.70;43.50;101502.91;2082117;28;19963;-38
2022/01/17 04:26:03;;;;;;;;;;;;;;;18.69;43.61;101495.69;2081919;28;19925;-38
2022/01/17 04:27:03;;;;;;;;;;;;;;;18.68;43.63;101491.22;2079793;28;19967;-38
2022/01/17 04:28:05;;;;;;;;;;;;;;;18.68;43.57;101493.94;2081034;28;19920;-39
2022/01/17 04:29:05;;;;;;;;;;;;;;;18.69;43.60;101501.16;2079005;28;19909;-38
2022/01/17 04:30:06;;;;;;;;;;;;;;;18.68;43.44;101493.94;2078991;28;20450;-38
2022/01/17 04:31:06;;;;;;;;;;;;;;;18.69;43.45;101492.06;2080725;28;19970;-38
2022/01/17 04:32:07;;;;;;;;;;;;;;;18.67;43.49;101497.66;2080816;28;19931;-38
2022/01/17 04:33:08;;;;;;;;;;;;;;;18.66;43.52;101493.19;2079244;28;19920;-38
2022/01/17 04:34:08;;;;;;;;;;;;;;;18.66;43.70;101490.44;2082667;28;19931;-38
2022/01/17 04:35:09;;;;;;;;;;;;;;;18.66;43.56;101493.19;2082164;28;20331;-38
2022/01/17 04:36:10;;;;;;;;;;;;;;;18.67;43.68;101492.22;2080567;28;20309;-38
2022/01/17 04:37:10;;;;;;;;;;;;;;;18.66;43.56;101486.84;2079117;28;19917;-38
2022/01/17 04:38:13;;;;;;;;;;;;;;;18.64;43.57;101485.13;2081096;28;19923;-38
2022/01/17 04:39:16;;;;;;;;;;;;;;;18.64;43.59;101485.13;2083771;28;20054;-38
2022/01/17 04:40:16;;;;;;;;;;;;;;;18.64;43.61;101495.16;2078149;28;20309;-38
2022/01/17 04:41:17;;;;;;;;;;;;;;;18.63;43.61;101490.69;2081396;28;19917;-38
2022/01/17 04:42:25;;;;;;;;;;;;;;;18.63;43.54;101490.69;2084118;28;19927;-38
2022/01/17 04:46:00;;;;;;;;;;;;;;;18.61;43.55;101479.00;2083262;28;19922;-38
2022/01/17 04:47:00;;;;;;;;;;;;;;;18.60;43.80;101478.13;2081452;28;19940;-38
2022/01/17 04:48:00;;;;;;;;;;;;;;;18.61;43.63;101484.44;2079855;28;20727;-38
2022/01/17 04:49:01;;;;;;;;;;;;;;;18.59;43.81;101486.41;2080925;28;19920;-38
2022/01/17 04:50:01;;;;;;;;;;;;;;;18.60;43.64;101488.19;2080627;28;20060;-38
2022/01/17 04:51:02;;;;;;;;;;;;;;;18.60;43.64;101493.66;2084007;28;20252;-38
2022/01/17 04:52:03;;;;;;;;;;;;;;;18.59;43.80;101483.69;2080107;28;19978;-38
2022/01/17 04:53:03;;;;;;;;;;;;;;;18.60;43.66;101490.91;2082385;28;19973;-38
2022/01/17 04:54:34;;;;;;;;;;;;;;;18.58;43.78;101479.22;2084234;28;20375;-38
2022/01/17 04:55:30;;;;;;;;;;;;;;;18.59;43.66;101486.41;2083983;28;19920;-38
2022/01/17 04:56:30;;;;;;;;;;;;;;;18.58;43.60;101485.56;2081459;28;19978;-38
2022/01/17 04:57:31;;;;;;;;;;;;;;;18.58;43.82;101484.69;2084251;28;19913;-38
2022/01/17 04:58:31;;;;;;;;;;;;;;;18.56;43.61;101478.47;2083559;28;20252;-38
2022/01/17 04:59:31;;;;;;;;;;;;;;;18.58;43.85;101481.97;2078813;28;20271;-38
2022/01/17 05:00:31;;;;;;;;;;;;;;;18.56;43.70;101481.19;2083509;28;19917;-38
2022/01/17 05:01:32;;;;;;;;;;;;;;;18.56;43.79;101481.19;2084072;28;20132;-38
2022/01/17 05:02:32;;;;;;;;;;;;;;;18.56;43.86;101481.19;2079687;28;19940;-38
2022/01/17 05:03:32;;;;;;;;;;;;;;;18.54;43.71;101478.56;2084159;28;19994;-38
2022/01/17 05:04:33;;;;;;;;;;;;;;;18.55;43.72;101479.47;2083885;28;19920;-38
2022/01/17 05:05:33;;;;;;;;;;;;;;;18.54;43.85;101478.56;2082467;28;19917;-38
2022/01/17 05:06:33;;;;;;;;;;;;;;;18.55;43.65;101479.47;2082195;28;20230;-38
2022/01/17 05:07:34;;;;;;;;;;;;;;;18.55;43.86;101474.00;2081997;28;19920;-38
2022/01/17 05:08:34;;;;;;;;;;;;;;;18.54;43.91;101477.69;2083749;28;20245;-38
2022/01/17 05:09:35;;;;;;;;;;;;;;;18.55;43.76;101479.47;2082418;28;20005;-38
2022/01/17 05:10:36;;;;;;;;;;;;;;;18.53;43.71;101482.28;2082341;28;19916;-38
2022/01/17 05:11:36;;;;;;;;;;;;;;;18.53;43.96;101484.16;2079063;28;20338;-38
2022/01/17 05:12:36;;;;;;;;;;;;;;;18.51;43.98;101483.38;2080005;28;19947;-38
2022/01/17 05:13:44;;;;;;;;;;;;;;;18.51;43.85;101484.25;2077899;28;19913;-38
2022/01/17 05:14:48;;;;;;;;;;;;;;;18.52;43.86;101479.66;2082972;28;20292;-38
2022/01/17 05:16:02;;;;;;;;;;;;;;;18.51;43.93;101484.25;2077578;28;19917;-38
2022/01/17 05:17:22;;;;;;;;;;;;;;;18.51;43.82;101489.72;2077744;28;19917;-38
2022/01/17 05:19:47;;;;;;;;;;;;;;;18.50;43.80;101487.13;2080634;28;20335;-38
2022/01/17 05:19:49;;;;;;;;;;;;;;;18.50;43.72;101492.59;2082735;28;19999;-38
2022/01/17 05:20:50;;;;;;;;;;;;;;;18.50;43.96;101492.59;2083572;28;20293;-38
2022/01/17 05:21:50;;;;;;;;;;;;;;;18.49;43.78;101491.69;2082095;28;19916;-38
2022/01/17 05:22:51;;;;;;;;;;;;;;;18.49;43.96;101496.28;2082228;28;20012;-38
2022/01/17 05:23:51;;;;;;;;;;;;;;;18.49;43.90;101490.81;2080364;28;19958;-39
2022/01/17 05:24:52;;;;;;;;;;;;;;;18.49;43.80;101485.34;2084054;28;19917;-38
2022/01/17 05:25:52;;;;;;;;;;;;;;;18.49;43.74;101486.22;2082581;28;20377;-38
2022/01/17 05:26:52;;;;;;;;;;;;;;;18.48;43.96;101478.16;2084177;28;19912;-38
2022/01/17 05:27:53;;;;;;;;;;;;;;;18.48;43.95;101484.50;2082641;28;20260;-38
2022/01/17 05:28:53;;;;;;;;;;;;;;;18.48;43.81;101486.34;2082040;28;20343;-38